sensor_id;sensor_type;location;lat;lon;timestamp;temperature;humidity
27072;DHT22;14613;46.308;25.288;2022-10-18T00:01:29;8.80;80.40
27072;DHT22;14613;46.308;25.288;2022-10-18T00:03:54;8.80;80.50
27072;DHT22;14613;46.308;25.288;2022-10-18T00:06:20;8.80;80.60
27072;DHT22;14613;46.308;25.288;2022-10-18T00:08:46;8.80;80.60
27072;DHT22;14613;46.308;25.288;2022-10-18T00:11:11;8.70;80.60
27072;DHT22;14613;46.308;25.288;2022-10-18T00:13:38;8.70;80.60
27072;DHT22;14613;46.308;25.288;2022-10-18T00:16:08;8.70;80.70
27072;DHT22;14613;46.308;25.288;2022-10-18T00:18:34;8.70;80.70
27072;DHT22;14613;46.308;25.288;2022-10-18T00:21:05;8.70;80.60
27072;DHT22;14613;46.308;25.288;2022-10-18T00:23:32;8.70;80.60
27072;DHT22;14613;46.308;25.288;2022-10-18T00:26:06;8.70;80.60
27072;DHT22;14613;46.308;25.288;2022-10-18T00:28:33;8.70;80.60
27072;DHT22;14613;46.308;25.288;2022-10-18T00:31:14;8.70;80.60
27072;DHT22;14613;46.308;25.288;2022-10-18T00:33:41;8.70;80.60
27072;DHT22;14613;46.308;25.288;2022-10-18T00:36:07;8.60;80.60
27072;DHT22;14613;46.308;25.288;2022-10-18T00:38:33;8.60;80.60
27072;DHT22;14613;46.308;25.288;2022-10-18T00:40:59;8.50;80.60
27072;DHT22;14613;46.308;25.288;2022-10-18T00:43:24;8.50;80.80
27072;DHT22;14613;46.308;25.288;2022-10-18T00:45:50;8.50;80.90
27072;DHT22;14613;46.308;25.288;2022-10-18T00:48:17;8.40;80.90
27072;DHT22;14613;46.308;25.288;2022-10-18T00:50:44;8.40;81.10
27072;DHT22;14613;46.308;25.288;2022-10-18T00:53:15;8.30;81.20
27072;DHT22;14613;46.308;25.288;2022-10-18T00:55:42;8.30;81.50
27072;DHT22;14613;46.308;25.288;2022-10-18T00:58:10;8.30;81.60
27072;DHT22;14613;46.308;25.288;2022-10-18T01:00:37;8.20;81.70
27072;DHT22;14613;46.308;25.288;2022-10-18T01:03:06;8.20;81.70
27072;DHT22;14613;46.308;25.288;2022-10-18T01:05:34;8.20;81.70
27072;DHT22;14613;46.308;25.288;2022-10-18T01:08:27;8.20;81.70
27072;DHT22;14613;46.308;25.288;2022-10-18T01:13:43;8.20;81.50
27072;DHT22;14613;46.308;25.288;2022-10-18T01:16:50;8.20;81.60
27072;DHT22;14613;46.308;25.288;2022-10-18T01:33:02;8.10;81.50
27072;DHT22;14613;46.308;25.288;2022-10-18T01:35:34;8.10;81.50
27072;DHT22;14613;46.308;25.288;2022-10-18T01:38:05;8.10;82.30
27072;DHT22;14613;46.308;25.288;2022-10-18T01:40:34;8.00;81.50
27072;DHT22;14613;46.308;25.288;2022-10-18T01:43:01;8.00;81.80
27072;DHT22;14613;46.308;25.288;2022-10-18T01:45:28;8.00;81.70
27072;DHT22;14613;46.308;25.288;2022-10-18T01:47:54;8.00;81.70
27072;DHT22;14613;46.308;25.288;2022-10-18T01:50:32;7.90;81.70
27072;DHT22;14613;46.308;25.288;2022-10-18T01:52:58;7.90;81.80
27072;DHT22;14613;46.308;25.288;2022-10-18T01:55:32;7.90;81.80
27072;DHT22;14613;46.308;25.288;2022-10-18T02:04:02;7.90;81.70
27072;DHT22;14613;46.308;25.288;2022-10-18T02:06:35;7.90;81.80
27072;DHT22;14613;46.308;25.288;2022-10-18T02:09:10;7.80;81.80
27072;DHT22;14613;46.308;25.288;2022-10-18T02:11:37;7.80;81.70
27072;DHT22;14613;46.308;25.288;2022-10-18T02:14:11;7.80;81.80
27072;DHT22;14613;46.308;25.288;2022-10-18T02:21:52;7.80;81.80
27072;DHT22;14613;46.308;25.288;2022-10-18T02:24:20;7.70;81.70
27072;DHT22;14613;46.308;25.288;2022-10-18T02:26:48;7.70;81.70
27072;DHT22;14613;46.308;25.288;2022-10-18T02:29:14;7.70;81.70
27072;DHT22;14613;46.308;25.288;2022-10-18T02:31:45;7.70;81.80
27072;DHT22;14613;46.308;25.288;2022-10-18T02:34:28;7.70;81.80
27072;DHT22;14613;46.308;25.288;2022-10-18T02:36:57;7.70;82.00
27072;DHT22;14613;46.308;25.288;2022-10-18T02:39:38;7.60;81.90
27072;DHT22;14613;46.308;25.288;2022-10-18T02:42:08;7.60;82.00
27072;DHT22;14613;46.308;25.288;2022-10-18T02:44:34;7.60;82.00
27072;DHT22;14613;46.308;25.288;2022-10-18T02:47:02;7.60;82.00
27072;DHT22;14613;46.308;25.288;2022-10-18T02:49:28;7.60;82.00
27072;DHT22;14613;46.308;25.288;2022-10-18T02:51:54;7.60;82.00
27072;DHT22;14613;46.308;25.288;2022-10-18T02:54:20;7.60;82.00
27072;DHT22;14613;46.308;25.288;2022-10-18T02:56:46;7.60;82.00
27072;DHT22;14613;46.308;25.288;2022-10-18T02:59:12;7.50;81.90
27072;DHT22;14613;46.308;25.288;2022-10-18T03:01:37;7.50;81.90
27072;DHT22;14613;46.308;25.288;2022-10-18T03:04:04;7.50;81.90
27072;DHT22;14613;46.308;25.288;2022-10-18T03:06:30;7.50;82.00
27072;DHT22;14613;46.308;25.288;2022-10-18T03:08:56;7.50;81.90
27072;DHT22;14613;46.308;25.288;2022-10-18T03:11:22;7.50;81.90
27072;DHT22;14613;46.308;25.288;2022-10-18T03:13:47;7.40;81.80
27072;DHT22;14613;46.308;25.288;2022-10-18T03:16:16;7.40;81.80
27072;DHT22;14613;46.308;25.288;2022-10-18T03:18:42;7.40;81.90
27072;DHT22;14613;46.308;25.288;2022-10-18T03:21:08;7.40;81.90
27072;DHT22;14613;46.308;25.288;2022-10-18T03:23:34;7.40;82.00
27072;DHT22;14613;46.308;25.288;2022-10-18T03:26:00;7.30;81.90
27072;DHT22;14613;46.308;25.288;2022-10-18T03:28:26;7.30;82.00
27072;DHT22;14613;46.308;25.288;2022-10-18T03:30:51;7.30;82.10
27072;DHT22;14613;46.308;25.288;2022-10-18T03:33:18;7.30;82.10
27072;DHT22;14613;46.308;25.288;2022-10-18T03:35:43;7.30;82.20
27072;DHT22;14613;46.308;25.288;2022-10-18T03:38:09;7.20;82.10
27072;DHT22;14613;46.308;25.288;2022-10-18T03:40:35;7.30;82.20
27072;DHT22;14613;46.308;25.288;2022-10-18T03:43:01;7.30;82.20
27072;DHT22;14613;46.308;25.288;2022-10-18T03:45:27;7.20;82.20
27072;DHT22;14613;46.308;25.288;2022-10-18T03:47:52;7.20;82.20
27072;DHT22;14613;46.308;25.288;2022-10-18T03:50:18;7.20;82.30
27072;DHT22;14613;46.308;25.288;2022-10-18T03:52:44;7.20;82.30
27072;DHT22;14613;46.308;25.288;2022-10-18T03:55:09;7.20;82.30
27072;DHT22;14613;46.308;25.288;2022-10-18T03:57:35;7.20;82.30
27072;DHT22;14613;46.308;25.288;2022-10-18T04:00:01;7.20;82.30
27072;DHT22;14613;46.308;25.288;2022-10-18T04:02:27;7.20;82.20
27072;DHT22;14613;46.308;25.288;2022-10-18T04:04:52;7.10;82.00
27072;DHT22;14613;46.308;25.288;2022-10-18T04:07:18;7.10;82.00
27072;DHT22;14613;46.308;25.288;2022-10-18T04:09:44;7.10;81.90
27072;DHT22;14613;46.308;25.288;2022-10-18T04:12:09;7.10;81.80
27072;DHT22;14613;46.308;25.288;2022-10-18T04:14:35;7.10;81.80
27072;DHT22;14613;46.308;25.288;2022-10-18T04:17:01;7.00;81.80
27072;DHT22;14613;46.308;25.288;2022-10-18T04:19:27;7.00;81.80
27072;DHT22;14613;46.308;25.288;2022-10-18T04:21:53;7.00;81.80
27072;DHT22;14613;46.308;25.288;2022-10-18T04:24:18;7.00;81.90
27072;DHT22;14613;46.308;25.288;2022-10-18T04:26:44;6.90;81.90
27072;DHT22;14613;46.308;25.288;2022-10-18T04:29:10;6.90;82.00
27072;DHT22;14613;46.308;25.288;2022-10-18T04:31:36;6.90;82.00
27072;DHT22;14613;46.308;25.288;2022-10-18T04:34:01;6.80;82.00
27072;DHT22;14613;46.308;25.288;2022-10-18T04:36:29;6.80;82.10
27072;DHT22;14613;46.308;25.288;2022-10-18T04:38:55;6.80;82.20
27072;DHT22;14613;46.308;25.288;2022-10-18T04:41:21;6.80;82.20
27072;DHT22;14613;46.308;25.288;2022-10-18T04:43:46;6.80;82.20
27072;DHT22;14613;46.308;25.288;2022-10-18T04:46:12;6.80;82.10
27072;DHT22;14613;46.308;25.288;2022-10-18T04:48:38;6.80;82.00
27072;DHT22;14613;46.308;25.288;2022-10-18T04:51:04;6.80;82.00
27072;DHT22;14613;46.308;25.288;2022-10-18T04:53:30;6.70;82.00
27072;DHT22;14613;46.308;25.288;2022-10-18T04:55:56;6.70;82.00
27072;DHT22;14613;46.308;25.288;2022-10-18T04:58:22;6.70;82.00
27072;DHT22;14613;46.308;25.288;2022-10-18T05:00:48;6.70;82.10
27072;DHT22;14613;46.308;25.288;2022-10-18T05:03:14;6.60;82.10
27072;DHT22;14613;46.308;25.288;2022-10-18T05:05:40;6.60;82.10
27072;DHT22;14613;46.308;25.288;2022-10-18T05:08:06;6.60;82.10
27072;DHT22;14613;46.308;25.288;2022-10-18T05:10:32;6.60;82.20
27072;DHT22;14613;46.308;25.288;2022-10-18T05:12:57;6.60;82.20
27072;DHT22;14613;46.308;25.288;2022-10-18T05:15:23;6.60;83.10
27072;DHT22;14613;46.308;25.288;2022-10-18T05:17:49;6.60;82.40
27072;DHT22;14613;46.308;25.288;2022-10-18T05:20:14;6.60;82.50
27072;DHT22;14613;46.308;25.288;2022-10-18T05:22:40;6.70;82.60
27072;DHT22;14613;46.308;25.288;2022-10-18T05:25:06;6.70;82.60
27072;DHT22;14613;46.308;25.288;2022-10-18T05:27:33;6.70;82.60
27072;DHT22;14613;46.308;25.288;2022-10-18T05:29:58;6.80;82.80
27072;DHT22;14613;46.308;25.288;2022-10-18T05:32:24;6.80;82.80
27072;DHT22;14613;46.308;25.288;2022-10-18T05:34:50;6.90;82.90
27072;DHT22;14613;46.308;25.288;2022-10-18T05:37:16;6.90;82.90
27072;DHT22;14613;46.308;25.288;2022-10-18T05:39:41;7.00;82.90
27072;DHT22;14613;46.308;25.288;2022-10-18T05:42:07;7.10;82.90
27072;DHT22;14613;46.308;25.288;2022-10-18T05:44:33;7.20;82.90
27072;DHT22;14613;46.308;25.288;2022-10-18T05:46:59;7.20;82.80
27072;DHT22;14613;46.308;25.288;2022-10-18T05:49:24;7.30;82.90
27072;DHT22;14613;46.308;25.288;2022-10-18T05:51:50;7.30;82.90
27072;DHT22;14613;46.308;25.288;2022-10-18T05:54:16;7.40;83.10
27072;DHT22;14613;46.308;25.288;2022-10-18T05:56:42;7.60;83.20
27072;DHT22;14613;46.308;25.288;2022-10-18T05:59:08;7.70;83.40
27072;DHT22;14613;46.308;25.288;2022-10-18T06:02:17;7.90;83.50
27072;DHT22;14613;46.308;25.288;2022-10-18T06:04:43;8.10;83.50
27072;DHT22;14613;46.308;25.288;2022-10-18T06:07:10;8.30;83.50
27072;DHT22;14613;46.308;25.288;2022-10-18T06:09:36;8.50;83.40
27072;DHT22;14613;46.308;25.288;2022-10-18T06:12:03;8.80;83.30
27072;DHT22;14613;46.308;25.288;2022-10-18T06:14:28;9.00;83.20
27072;DHT22;14613;46.308;25.288;2022-10-18T06:16:54;9.20;83.00
27072;DHT22;14613;46.308;25.288;2022-10-18T06:19:22;9.40;82.80
27072;DHT22;14613;46.308;25.288;2022-10-18T06:21:48;9.60;82.80
27072;DHT22;14613;46.308;25.288;2022-10-18T06:24:14;9.90;82.70
27072;DHT22;14613;46.308;25.288;2022-10-18T06:26:40;10.10;82.50
27072;DHT22;14613;46.308;25.288;2022-10-18T06:29:05;10.30;82.40
27072;DHT22;14613;46.308;25.288;2022-10-18T06:31:31;10.40;82.40
27072;DHT22;14613;46.308;25.288;2022-10-18T06:33:57;10.70;82.60
27072;DHT22;14613;46.308;25.288;2022-10-18T06:36:23;10.90;82.60
27072;DHT22;14613;46.308;25.288;2022-10-18T06:38:49;11.20;82.60
27072;DHT22;14613;46.308;25.288;2022-10-18T06:41:16;11.50;82.50
27072;DHT22;14613;46.308;25.288;2022-10-18T06:43:42;11.70;82.30
27072;DHT22;14613;46.308;25.288;2022-10-18T06:46:09;12.00;82.30
27072;DHT22;14613;46.308;25.288;2022-10-18T06:48:35;12.30;82.10
27072;DHT22;14613;46.308;25.288;2022-10-18T06:51:04;12.50;81.90
27072;DHT22;14613;46.308;25.288;2022-10-18T06:53:32;12.80;81.90
27072;DHT22;14613;46.308;25.288;2022-10-18T06:56:07;13.00;81.80
27072;DHT22;14613;46.308;25.288;2022-10-18T06:58:34;13.30;81.60
27072;DHT22;14613;46.308;25.288;2022-10-18T07:01:08;13.60;81.30
27072;DHT22;14613;46.308;25.288;2022-10-18T07:03:35;13.80;80.90
27072;DHT22;14613;46.308;25.288;2022-10-18T07:06:02;14.10;80.60
27072;DHT22;14613;46.308;25.288;2022-10-18T07:08:28;14.30;80.30
27072;DHT22;14613;46.308;25.288;2022-10-18T07:10:54;14.50;79.60
27072;DHT22;14613;46.308;25.288;2022-10-18T07:13:20;14.60;79.40
27072;DHT22;14613;46.308;25.288;2022-10-18T07:15:46;14.70;79.30
27072;DHT22;14613;46.308;25.288;2022-10-18T07:18:12;14.90;79.10
27072;DHT22;14613;46.308;25.288;2022-10-18T07:20:38;15.10;78.90
27072;DHT22;14613;46.308;25.288;2022-10-18T07:23:04;15.30;78.80
27072;DHT22;14613;46.308;25.288;2022-10-18T07:25:33;15.60;78.70
27072;DHT22;14613;46.308;25.288;2022-10-18T07:27:59;15.80;78.30
27072;DHT22;14613;46.308;25.288;2022-10-18T07:30:25;16.00;78.00
27072;DHT22;14613;46.308;25.288;2022-10-18T07:32:51;16.20;77.60
27072;DHT22;14613;46.308;25.288;2022-10-18T07:35:17;16.40;77.30
27072;DHT22;14613;46.308;25.288;2022-10-18T07:37:43;16.60;77.00
27072;DHT22;14613;46.308;25.288;2022-10-18T07:40:09;16.70;76.70
27072;DHT22;14613;46.308;25.288;2022-10-18T07:42:36;16.90;76.30
27072;DHT22;14613;46.308;25.288;2022-10-18T07:45:03;17.10;76.10
27072;DHT22;14613;46.308;25.288;2022-10-18T07:47:29;17.20;75.90
27072;DHT22;14613;46.308;25.288;2022-10-18T07:49:54;17.30;75.70
27072;DHT22;14613;46.308;25.288;2022-10-18T07:52:20;17.50;75.40
27072;DHT22;14613;46.308;25.288;2022-10-18T07:54:46;17.70;75.20
27072;DHT22;14613;46.308;25.288;2022-10-18T07:57:11;17.80;74.90
27072;DHT22;14613;46.308;25.288;2022-10-18T07:59:37;18.00;74.50
27072;DHT22;14613;46.308;25.288;2022-10-18T08:02:03;18.10;74.30
27072;DHT22;14613;46.308;25.288;2022-10-18T08:04:29;18.30;74.10
27072;DHT22;14613;46.308;25.288;2022-10-18T08:06:54;18.40;73.80
27072;DHT22;14613;46.308;25.288;2022-10-18T08:09:20;18.60;73.70
27072;DHT22;14613;46.308;25.288;2022-10-18T08:11:46;18.70;73.40
27072;DHT22;14613;46.308;25.288;2022-10-18T08:14:11;18.80;73.10
27072;DHT22;14613;46.308;25.288;2022-10-18T08:16:37;18.90;72.80
27072;DHT22;14613;46.308;25.288;2022-10-18T08:19:03;18.90;72.30
27072;DHT22;14613;46.308;25.288;2022-10-18T08:21:29;19.00;72.10
27072;DHT22;14613;46.308;25.288;2022-10-18T08:23:54;19.10;71.80
27072;DHT22;14613;46.308;25.288;2022-10-18T08:26:21;19.20;71.70
27072;DHT22;14613;46.308;25.288;2022-10-18T08:28:48;19.30;71.60
27072;DHT22;14613;46.308;25.288;2022-10-18T08:31:16;19.40;71.50
27072;DHT22;14613;46.308;25.288;2022-10-18T08:33:43;19.60;71.50
27072;DHT22;14613;46.308;25.288;2022-10-18T08:36:11;19.80;71.20
27072;DHT22;14613;46.308;25.288;2022-10-18T08:38:39;19.90;70.90
27072;DHT22;14613;46.308;25.288;2022-10-18T08:46:32;20.40;69.90
27072;DHT22;14613;46.308;25.288;2022-10-18T08:48:59;20.60;69.60
27072;DHT22;14613;46.308;25.288;2022-10-18T08:51:30;20.60;69.30
27072;DHT22;14613;46.308;25.288;2022-10-18T08:54:13;20.80;69.20
27072;DHT22;14613;46.308;25.288;2022-10-18T08:56:46;20.90;69.00
27072;DHT22;14613;46.308;25.288;2022-10-18T08:59:18;21.10;69.00
27072;DHT22;14613;46.308;25.288;2022-10-18T09:10:28;21.40;68.20
27072;DHT22;14613;46.308;25.288;2022-10-18T09:20:49;22.00;67.50
27072;DHT22;14613;46.308;25.288;2022-10-18T09:23:21;22.10;68.10
27072;DHT22;14613;46.308;25.288;2022-10-18T09:29:04;22.20;66.50
27072;DHT22;14613;46.308;25.288;2022-10-18T09:31:59;22.20;66.40
27072;DHT22;14613;46.308;25.288;2022-10-18T09:34:35;22.40;66.40
27072;DHT22;14613;46.308;25.288;2022-10-18T09:37:03;22.50;66.20
27072;DHT22;14613;46.308;25.288;2022-10-18T09:39:32;22.60;66.20
27072;DHT22;14613;46.308;25.288;2022-10-18T09:42:09;22.70;65.80
27072;DHT22;14613;46.308;25.288;2022-10-18T09:44:43;22.80;65.30
27072;DHT22;14613;46.308;25.288;2022-10-18T09:47:25;22.90;65.30
27072;DHT22;14613;46.308;25.288;2022-10-18T09:49:57;22.90;65.10
27072;DHT22;14613;46.308;25.288;2022-10-18T09:52:38;23.10;65.20
27072;DHT22;14613;46.308;25.288;2022-10-18T09:55:16;23.20;65.10
27072;DHT22;14613;46.308;25.288;2022-10-18T09:57:47;23.30;64.50
27072;DHT22;14613;46.308;25.288;2022-10-18T10:00:20;23.30;64.00
27072;DHT22;14613;46.308;25.288;2022-10-18T10:02:47;23.20;63.40
27072;DHT22;14613;46.308;25.288;2022-10-18T10:05:13;23.20;63.90
27072;DHT22;14613;46.308;25.288;2022-10-18T10:07:45;23.20;63.70
27072;DHT22;14613;46.308;25.288;2022-10-18T10:12:38;23.30;63.30
27072;DHT22;14613;46.308;25.288;2022-10-18T10:15:20;23.30;62.70
27072;DHT22;14613;46.308;25.288;2022-10-18T10:18:04;23.30;62.30
27072;DHT22;14613;46.308;25.288;2022-10-18T10:20:54;23.40;62.50
27072;DHT22;14613;46.308;25.288;2022-10-18T10:23:25;23.60;62.50
27072;DHT22;14613;46.308;25.288;2022-10-18T10:25:58;23.70;62.30
27072;DHT22;14613;46.308;25.288;2022-10-18T10:28:29;23.80;61.60
27072;DHT22;14613;46.308;25.288;2022-10-18T10:33:45;23.80;60.90
27072;DHT22;14613;46.308;25.288;2022-10-18T10:36:20;23.90;61.20
27072;DHT22;14613;46.308;25.288;2022-10-18T10:39:05;23.90;60.90
27072;DHT22;14613;46.308;25.288;2022-10-18T10:41:31;24.00;60.70
27072;DHT22;14613;46.308;25.288;2022-10-18T10:43:57;24.10;60.80
27072;DHT22;14613;46.308;25.288;2022-10-18T10:46:33;24.20;60.70
27072;DHT22;14613;46.308;25.288;2022-10-18T10:48:59;24.20;60.40
27072;DHT22;14613;46.308;25.288;2022-10-18T10:51:33;24.30;60.30
27072;DHT22;14613;46.308;25.288;2022-10-18T10:56:32;24.40;59.90
27072;DHT22;14613;46.308;25.288;2022-10-18T10:59:19;24.50;59.80
27072;DHT22;14613;46.308;25.288;2022-10-18T11:01:46;24.50;59.20
27072;DHT22;14613;46.308;25.288;2022-10-18T11:04:28;24.50;58.90
27072;DHT22;14613;46.308;25.288;2022-10-18T11:10:15;24.30;58.40
27072;DHT22;14613;46.308;25.288;2022-10-18T11:12:50;24.20;58.50
27072;DHT22;14613;46.308;25.288;2022-10-18T11:15:26;24.20;58.80
27072;DHT22;14613;46.308;25.288;2022-10-18T11:18:14;24.30;58.90
27072;DHT22;14613;46.308;25.288;2022-10-18T11:23:19;24.50;58.80
27072;DHT22;14613;46.308;25.288;2022-10-18T11:28:36;24.60;58.50
27072;DHT22;14613;46.308;25.288;2022-10-18T11:33:54;24.50;57.70
27072;DHT22;14613;46.308;25.288;2022-10-18T11:47:56;24.40;57.70
27072;DHT22;14613;46.308;25.288;2022-10-18T11:53:32;24.50;57.60
27072;DHT22;14613;46.308;25.288;2022-10-18T12:03:55;24.90;57.30
27072;DHT22;14613;46.308;25.288;2022-10-18T12:06:27;24.90;57.20
27072;DHT22;14613;46.308;25.288;2022-10-18T12:09:02;24.90;57.10
27072;DHT22;14613;46.308;25.288;2022-10-18T12:11:38;24.90;56.80
27072;DHT22;14613;46.308;25.288;2022-10-18T12:14:27;24.90;56.60
27072;DHT22;14613;46.308;25.288;2022-10-18T12:16:56;24.80;56.40
27072;DHT22;14613;46.308;25.288;2022-10-18T12:19:26;24.80;56.40
27072;DHT22;14613;46.308;25.288;2022-10-18T12:21:55;24.80;56.30
27072;DHT22;14613;46.308;25.288;2022-10-18T12:24:27;24.70;56.30
27072;DHT22;14613;46.308;25.288;2022-10-18T12:26:58;24.80;56.30
27072;DHT22;14613;46.308;25.288;2022-10-18T12:32:11;24.70;56.30
27072;DHT22;14613;46.308;25.288;2022-10-18T12:34:53;24.70;56.40
27072;DHT22;14613;46.308;25.288;2022-10-18T12:40:11;24.70;56.40
27072;DHT22;14613;46.308;25.288;2022-10-18T12:42:43;24.70;56.50
27072;DHT22;14613;46.308;25.288;2022-10-18T12:45:22;24.70;56.50
27072;DHT22;14613;46.308;25.288;2022-10-18T12:47:49;24.70;56.50
27072;DHT22;14613;46.308;25.288;2022-10-18T12:50:28;24.70;56.40
27072;DHT22;14613;46.308;25.288;2022-10-18T12:55:37;24.70;56.40
27072;DHT22;14613;46.308;25.288;2022-10-18T13:08:39;24.60;56.20
27072;DHT22;14613;46.308;25.288;2022-10-18T13:21:24;24.40;56.30
27072;DHT22;14613;46.308;25.288;2022-10-18T13:24:04;24.40;56.20
27072;DHT22;14613;46.308;25.288;2022-10-18T13:31:53;24.20;56.00
27072;DHT22;14613;46.308;25.288;2022-10-18T13:34:40;24.20;56.00
27072;DHT22;14613;46.308;25.288;2022-10-18T13:39:37;24.10;55.90
27072;DHT22;14613;46.308;25.288;2022-10-18T13:44:38;24.00;55.80
27072;DHT22;14613;46.308;25.288;2022-10-18T13:58:23;23.80;55.70
27072;DHT22;14613;46.308;25.288;2022-10-18T14:04:36;23.70;55.70
27072;DHT22;14613;46.308;25.288;2022-10-18T14:07:05;23.60;55.80
27072;DHT22;14613;46.308;25.288;2022-10-18T14:09:49;23.50;55.70
27072;DHT22;14613;46.308;25.288;2022-10-18T14:12:24;23.50;55.80
27072;DHT22;14613;46.308;25.288;2022-10-18T14:15:17;23.40;55.90
27072;DHT22;14613;46.308;25.288;2022-10-18T14:17:59;23.30;55.80
27072;DHT22;14613;46.308;25.288;2022-10-18T14:20:37;23.30;55.90
27072;DHT22;14613;46.308;25.288;2022-10-18T14:25:41;23.20;56.10
27072;DHT22;14613;46.308;25.288;2022-10-18T14:28:18;23.10;56.10
27072;DHT22;14613;46.308;25.288;2022-10-18T14:31:03;23.00;56.10
27072;DHT22;14613;46.308;25.288;2022-10-18T14:33:45;22.90;56.10
27072;DHT22;14613;46.308;25.288;2022-10-18T14:38:59;22.70;56.30
27072;DHT22;14613;46.308;25.288;2022-10-18T14:41:36;22.60;56.40
27072;DHT22;14613;46.308;25.288;2022-10-18T14:44:31;22.50;56.60
27072;DHT22;14613;46.308;25.288;2022-10-18T14:49:44;22.20;56.90
27072;DHT22;14613;46.308;25.288;2022-10-18T14:52:18;22.10;57.10
27072;DHT22;14613;46.308;25.288;2022-10-18T14:54:45;22.00;57.20
27072;DHT22;14613;46.308;25.288;2022-10-18T14:57:24;21.90;57.40
27072;DHT22;14613;46.308;25.288;2022-10-18T14:59:54;21.80;57.60
27072;DHT22;14613;46.308;25.288;2022-10-18T15:02:24;21.60;57.70
27072;DHT22;14613;46.308;25.288;2022-10-18T15:05:04;21.50;57.90
27072;DHT22;14613;46.308;25.288;2022-10-18T15:07:30;21.40;58.10
27072;DHT22;14613;46.308;25.288;2022-10-18T15:09:59;21.20;58.30
27072;DHT22;14613;46.308;25.288;2022-10-18T15:12:27;21.10;58.50
27072;DHT22;14613;46.308;25.288;2022-10-18T15:14:53;21.00;58.70
27072;DHT22;14613;46.308;25.288;2022-10-18T15:17:22;20.80;58.90
27072;DHT22;14613;46.308;25.288;2022-10-18T15:20:21;20.70;59.00
27072;DHT22;14613;46.308;25.288;2022-10-18T15:22:49;20.60;59.20
27072;DHT22;14613;46.308;25.288;2022-10-18T15:25:22;20.40;59.30
27072;DHT22;14613;46.308;25.288;2022-10-18T15:27:56;20.30;59.50
27072;DHT22;14613;46.308;25.288;2022-10-18T15:30:28;20.20;59.80
27072;DHT22;14613;46.308;25.288;2022-10-18T15:32:59;20.00;59.90
27072;DHT22;14613;46.308;25.288;2022-10-18T15:35:31;19.80;60.10
27072;DHT22;14613;46.308;25.288;2022-10-18T15:37:59;19.70;60.40
27072;DHT22;14613;46.308;25.288;2022-10-18T15:40:33;19.50;60.70
27072;DHT22;14613;46.308;25.288;2022-10-18T15:43:01;19.50;61.00
27072;DHT22;14613;46.308;25.288;2022-10-18T15:45:39;19.30;61.10
27072;DHT22;14613;46.308;25.288;2022-10-18T15:50:57;19.10;61.40
27072;DHT22;14613;46.308;25.288;2022-10-18T15:58:42;18.70;62.00
27072;DHT22;14613;46.308;25.288;2022-10-18T16:01:21;18.60;62.30
27072;DHT22;14613;46.308;25.288;2022-10-18T16:03:48;18.40;62.50
27072;DHT22;14613;46.308;25.288;2022-10-18T16:06:15;18.30;62.80
27072;DHT22;14613;46.308;25.288;2022-10-18T16:08:44;18.10;63.10
27072;DHT22;14613;46.308;25.288;2022-10-18T16:11:15;17.90;63.40
27072;DHT22;14613;46.308;25.288;2022-10-18T16:13:42;17.90;63.70
27072;DHT22;14613;46.308;25.288;2022-10-18T16:16:28;17.70;63.90
27072;DHT22;14613;46.308;25.288;2022-10-18T16:18:54;17.60;64.10
27072;DHT22;14613;46.308;25.288;2022-10-18T16:23:49;17.40;64.50
27072;DHT22;14613;46.308;25.288;2022-10-18T16:26:17;17.30;64.60
27072;DHT22;14613;46.308;25.288;2022-10-18T16:28:43;17.20;64.70
27072;DHT22;14613;46.308;25.288;2022-10-18T16:31:19;17.10;64.80
27072;DHT22;14613;46.308;25.288;2022-10-18T16:33:46;17.00;65.00
27072;DHT22;14613;46.308;25.288;2022-10-18T16:36:15;16.90;65.30
27072;DHT22;14613;46.308;25.288;2022-10-18T16:38:41;16.80;65.40
27072;DHT22;14613;46.308;25.288;2022-10-18T16:41:07;16.80;65.50
27072;DHT22;14613;46.308;25.288;2022-10-18T16:43:34;16.70;65.70
27072;DHT22;14613;46.308;25.288;2022-10-18T16:46:00;16.60;65.80
27072;DHT22;14613;46.308;25.288;2022-10-18T16:48:26;16.50;66.00
27072;DHT22;14613;46.308;25.288;2022-10-18T16:50:54;16.30;66.10
27072;DHT22;14613;46.308;25.288;2022-10-18T16:53:20;16.30;66.50
27072;DHT22;14613;46.308;25.288;2022-10-18T16:55:57;16.20;66.60
27072;DHT22;14613;46.308;25.288;2022-10-18T16:58:25;16.10;66.80
27072;DHT22;14613;46.308;25.288;2022-10-18T17:00:51;16.00;66.90
27072;DHT22;14613;46.308;25.288;2022-10-18T17:03:17;15.90;67.10
27072;DHT22;14613;46.308;25.288;2022-10-18T17:05:43;15.80;67.10
27072;DHT22;14613;46.308;25.288;2022-10-18T17:08:29;15.70;67.30
27072;DHT22;14613;46.308;25.288;2022-10-18T17:10:57;15.60;67.50
27072;DHT22;14613;46.308;25.288;2022-10-18T17:13:24;15.50;67.80
27072;DHT22;14613;46.308;25.288;2022-10-18T17:15:50;15.40;67.90
27072;DHT22;14613;46.308;25.288;2022-10-18T17:18:19;15.40;68.10
27072;DHT22;14613;46.308;25.288;2022-10-18T17:20:47;15.30;68.20
27072;DHT22;14613;46.308;25.288;2022-10-18T17:23:13;15.20;68.20
27072;DHT22;14613;46.308;25.288;2022-10-18T17:25:40;15.20;68.40
27072;DHT22;14613;46.308;25.288;2022-10-18T17:28:12;15.10;68.40
27072;DHT22;14613;46.308;25.288;2022-10-18T17:30:38;15.10;68.50
27072;DHT22;14613;46.308;25.288;2022-10-18T17:33:05;15.00;68.70
27072;DHT22;14613;46.308;25.288;2022-10-18T17:35:30;14.90;68.80
27072;DHT22;14613;46.308;25.288;2022-10-18T17:37:56;14.90;69.00
27072;DHT22;14613;46.308;25.288;2022-10-18T17:40:22;14.80;69.10
27072;DHT22;14613;46.308;25.288;2022-10-18T17:42:52;14.80;69.30
27072;DHT22;14613;46.308;25.288;2022-10-18T17:45:19;14.70;69.40
27072;DHT22;14613;46.308;25.288;2022-10-18T17:47:49;14.70;69.60
27072;DHT22;14613;46.308;25.288;2022-10-18T17:50:15;14.60;69.70
27072;DHT22;14613;46.308;25.288;2022-10-18T17:53:29;14.50;69.70
27072;DHT22;14613;46.308;25.288;2022-10-18T17:55:59;14.50;69.90
27072;DHT22;14613;46.308;25.288;2022-10-18T17:58:28;14.40;70.00
27072;DHT22;14613;46.308;25.288;2022-10-18T18:00:54;14.40;70.10
27072;DHT22;14613;46.308;25.288;2022-10-18T18:03:22;14.30;70.20
27072;DHT22;14613;46.308;25.288;2022-10-18T18:05:48;14.20;70.20
27072;DHT22;14613;46.308;25.288;2022-10-18T18:08:14;14.20;70.30
27072;DHT22;14613;46.308;25.288;2022-10-18T18:10:40;14.10;70.50
27072;DHT22;14613;46.308;25.288;2022-10-18T18:13:06;14.00;70.60
27072;DHT22;14613;46.308;25.288;2022-10-18T18:15:31;13.90;70.70
27072;DHT22;14613;46.308;25.288;2022-10-18T18:17:57;13.90;70.90
27072;DHT22;14613;46.308;25.288;2022-10-18T18:20:23;13.80;71.20
27072;DHT22;14613;46.308;25.288;2022-10-18T18:22:50;13.70;71.30
27072;DHT22;14613;46.308;25.288;2022-10-18T18:25:16;13.60;71.40